Monroe, NC

6:28 AM EDT on September 16, 2014 (GMT -0400)
KNCMONRO8 | Change Station
CLOSE
Current Station
Personal Weather Station
Location: Monroe, NC
Elevation: 614 ft
Nearby Weather Stations

Elev 614 ft 34.97 °N, 80.56 °W | Updated 17 seconds ago

Overcast
Overcast
71.9 °F
Feels Like 71 °F
N
0.0
Wind Variable Wind from West
Gusts 6.0 mph

Today
High -- | Low -- °F
--% Chance of Precip.
Yesterday
High -- | Low -- °F
Precip. -- in
7:05 AM 7:27 PM
Waning Gibbous, 47% visible
Pressure 30.06 in
Visibility 7.0 miles
Clouds Scattered Clouds 1000 ft
Overcast 1400 ft
Heat Index 71 °F
Dew Point 66 °F
Humidity 83%
Rainfall 0.00 in
Snow Depth Not available.
UV 0 out of 12
Pollen 7.40 out of 12
PM2.5 Good
Flu Activity Not available.
SPECI KEQY 161002Z AUTO 25005KT 7SM SCT010 OVC014 22/20 A3006 RMK AO2 T02170200

More Conditions Fewer Conditions

Pressure 30.06 in
Visibility 7.0 miles
Clouds Scattered Clouds 1000 ft
Overcast 1400 ft
Heat Index 71 °F
Dew Point 66 °F
Humidity 83%
Rainfall 0.00 in
Snow Depth Not available.
UV 0 out of 12
Pollen 7.40 out of 12
PM2.5 Good
Flu Activity Not available.
SPECI KEQY 161002Z AUTO 25005KT 7SM SCT010 OVC014 22/20 A3006 RMK AO2 T02170200

More Conditions Fewer Conditions

10-Day Weather Forecast

Almanac

Astronomy

Sep. 16, 2014 Rise Set
Actual Time 7:05 AM EDT 7:27 PM EDT
Civil Twilight 6:40 AM EDT 7:52 PM EDT
Nautical Twilight 6:10 AM EDT 8:22 PM EDT
Astronomical Twilight 5:40 AM EDT 8:52 PM EDT
Moon 12:24 AM EDT 2:40 PM EDT
Length of Visible Light 13h 12m
Length of Day
12h 21m
Tomorrow will be 2m 9s shorter.
Waning Gibbous, 47% of the Moon is Illuminated
Today
Waning Gibbous
Sep 24
New
Oct 1
First Quarter
Oct 8
Full
Oct 15
Last Quarter

Today's Extremes

State Highs State Lows

Community

WunderPhotos

Upload Photos

1,753,718 photos uploaded!

WunderBlogs® & News

Nearby

Air Quality

  Air Quality AQ Index Pollutant
Yesterday Good
PM2.5
Yesterday Good
OZONE
Current Good
PM2.5
Tuesday Good
OZONE
Tuesday Good
PM2.5
Wednesday Good
OZONE
Wednesday Good
PM2.5
Thursday Good
OZONE
Thursday Good
PM2.5

Snow Depth

Station Depth Elevation
No new snow has been reported.

Earthquake Activity

City Distance Mag. Time & Date
No recent earthquake activity has been reported nearby.
Minimum magnitude displayed is 2.5.

Coastal Water Temperatures

Place Temperature
No Stations Reporting

Nearby Weather Stations